Time;durP1;ratioP1;P1;durP2;ratioP2;P2;SDS_P1;SDS_P2;PMS_P1;PMS_P2;Temp;Humidity;BMP_temperature;BMP_pressure;BME280_temperature;BME280_humidity;BME280_pressure;Samples;Min_cycle;Max_cycle;Signal;HPM_P1;HPM_P2
2023/07/27 00:00:23;;;;;;;6.60;3.60;;;;;;;7.69;100.00;93035.81;2090363;28;20021;-80
2023/07/27 00:01:24;;;;;;;4.93;4.10;;;;;;;7.70;100.00;93032.75;2098334;28;20519;-80
2023/07/27 00:02:25;;;;;;;4.07;2.97;;;;;;;7.68;100.00;93034.28;2099329;28;20032;-80
2023/07/27 00:03:26;;;;;;;4.80;3.25;;;;;;;7.71;100.00;93038.81;2098760;28;20024;-81
2023/07/27 00:04:27;;;;;;;5.47;3.25;;;;;;;7.62;100.00;93036.66;2093444;28;20108;-81
2023/07/27 00:05:29;;;;;;;4.10;3.38;;;;;;;7.68;100.00;93035.06;2106971;28;20160;-80
2023/07/27 00:06:30;;;;;;;4.68;3.50;;;;;;;7.67;100.00;93035.44;2100066;28;20469;-80
2023/07/27 00:07:36;;;;;;;7.45;3.80;;;;;;;7.81;100.00;93040.59;2098626;28;20020;-80
2023/07/27 00:08:37;;;;;;;7.45;3.75;;;;;;;7.94;100.00;93033.56;2107132;28;20020;-81
2023/07/27 00:09:38;;;;;;;6.95;3.85;;;;;;;8.04;100.00;93031.94;2106991;28;20016;-81
2023/07/27 00:10:40;;;;;;;4.75;3.45;;;;;;;7.92;100.00;93027.16;2090127;28;20055;-81
2023/07/27 00:11:41;;;;;;;4.00;3.60;;;;;;;7.91;100.00;93026.41;2090482;28;20029;-81
2023/07/27 00:12:42;;;;;;;5.82;3.60;;;;;;;7.89;100.00;93030.63;2106810;28;20054;-81
2023/07/27 00:13:43;;;;;;;6.13;4.00;;;;;;;7.96;100.00;93022.53;2098767;28;20049;-80
2023/07/27 00:14:44;;;;;;;7.97;3.72;;;;;;;7.97;100.00;93024.78;2106675;28;20037;-81
2023/07/27 00:15:45;;;;;;;3.65;3.25;;;;;;;8.03;100.00;93022.44;2106970;28;20047;-81
2023/07/27 00:16:46;;;;;;;5.38;3.80;;;;;;;7.99;100.00;93022.50;2098023;28;20137;-81
2023/07/27 00:17:47;;;;;;;8.02;3.78;;;;;;;7.96;100.00;93017.97;2092860;28;20032;-81
2023/07/27 00:18:48;;;;;;;7.85;3.88;;;;;;;7.95;100.00;93023.72;2090096;28;20048;-81
2023/07/27 00:19:49;;;;;;;5.45;3.90;;;;;;;7.91;100.00;93029.06;2087360;28;20488;-81
2023/07/27 00:20:50;;;;;;;5.13;3.45;;;;;;;7.93;100.00;93024.09;2099929;28;20110;-81
2023/07/27 00:21:51;;;;;;;5.25;3.60;;;;;;;7.94;100.00;93017.59;2098411;28;20093;-80
2023/07/27 00:22:52;;;;;;;5.22;3.65;;;;;;;7.98;100.00;93015.66;2109005;28;20457;-82
2023/07/27 00:23:53;;;;;;;6.13;3.42;;;;;;;8.00;100.00;93017.94;2115419;28;20043;-81
2023/07/27 00:24:54;;;;;;;7.40;3.78;;;;;;;8.01;100.00;93014.09;2115164;28;20454;-81
2023/07/27 00:25:55;;;;;;;5.95;3.80;;;;;;;8.04;100.00;93016.72;2106580;28;20043;-80
2023/07/27 00:26:56;;;;;;;7.05;3.20;;;;;;;8.02;100.00;93012.94;2106945;28;20054;-82
2023/07/27 00:27:57;;;;;;;3.90;3.45;;;;;;;8.11;100.00;93017.78;2111375;28;20179;-81
2023/07/27 00:28:58;;;;;;;4.97;3.55;;;;;;;8.40;100.00;93018.91;2114742;28;20073;-82
2023/07/27 00:29:59;;;;;;;4.45;3.40;;;;;;;8.46;100.00;93009.28;2115061;28;20035;-81
2023/07/27 00:31:00;;;;;;;4.38;3.30;;;;;;;8.41;100.00;93001.75;2108223;28;20146;-81
2023/07/27 00:32:01;;;;;;;6.63;3.70;;;;;;;8.28;100.00;93000.78;2110401;28;20030;-81
2023/07/27 00:33:02;;;;;;;6.00;3.42;;;;;;;8.27;100.00;93012.59;2111564;28;20028;-81
2023/07/27 00:34:03;;;;;;;4.05;3.58;;;;;;;8.35;100.00;93002.59;2115341;28;20103;-81
2023/07/27 00:35:05;;;;;;;4.50;3.33;;;;;;;8.38;100.00;92994.56;2107184;28;20424;-81
2023/07/27 00:36:06;;;;;;;5.13;3.22;;;;;;;8.32;100.00;93002.25;2109042;28;20020;-82
2023/07/27 00:37:07;;;;;;;4.85;3.60;;;;;;;8.44;100.00;92992.97;2115184;28;20084;-81
2023/07/27 00:38:08;;;;;;;8.45;3.70;;;;;;;8.46;100.00;92995.97;2106460;28;20381;-82
2023/07/27 00:39:10;;;;;;;5.38;3.80;;;;;;;8.40;100.00;92989.59;2102467;28;20024;-81
2023/07/27 00:40:12;;;;;;;5.75;3.90;;;;;;;8.39;100.00;92993.44;2090458;28;20479;-81
2023/07/27 00:41:13;;;;;;;5.88;4.25;;;;;;;8.45;100.00;92993.72;2093116;28;20476;-81
2023/07/27 00:42:13;;;;;;;5.85;3.70;;;;;;;8.48;100.00;92991.00;2105832;28;20020;-82
2023/07/27 00:43:14;;;;;;;6.20;3.65;;;;;;;8.45;100.00;92991.81;2106609;28;20055;-81
2023/07/27 00:44:15;;;;;;;5.35;3.88;;;;;;;8.39;100.00;92992.69;2098730;28;20081;-81
2023/07/27 00:45:16;;;;;;;7.00;4.25;;;;;;;8.45;100.00;92993.72;2090134;28;20032;-81
2023/07/27 00:46:17;;;;;;;7.50;4.00;;;;;;;8.41;100.00;92988.44;2094240;28;20029;-81
2023/07/27 00:47:18;;;;;;;8.93;3.33;;;;;;;8.40;100.00;92986.94;2096438;28;20024;-81
2023/07/27 00:48:20;;;;;;;8.77;3.67;;;;;;;8.47;100.00;92986.06;2091258;28;20029;-81
2023/07/27 00:49:21;;;;;;;7.55;3.47;;;;;;;8.28;100.00;92979.50;2098262;28;20034;-81
2023/07/27 00:50:22;;;;;;;5.25;3.60;;;;;;;8.28;100.00;92990.88;2098428;28;20036;-81
2023/07/27 00:51:49;;;;;;;6.32;3.50;;;;;;;8.25;100.00;92980.28;2102438;28;20048;-81
2023/07/27 00:52:50;;;;;;;6.22;3.65;;;;;;;8.35;100.00;92982.06;2109615;28;20043;-81
2023/07/27 00:53:51;;;;;;;4.13;3.50;;;;;;;8.35;100.00;92982.06;2106411;28;20020;-81
2023/07/27 00:54:55;;;;;;;5.35;3.67;;;;;;;8.42;100.00;92979.28;2108897;28;20073;-81
2023/07/27 00:55:58;;;;;;;6.63;4.05;;;;;;;8.35;100.00;92986.63;2106449;28;20027;-80
2023/07/27 00:56:59;;;;;;;7.13;3.60;;;;;;;8.25;100.00;92983.72;2098539;28;20090;-81
2023/07/27 00:58:01;;;;;;;5.97;3.80;;;;;;;8.12;100.00;92984.66;2107375;28;20031;-80
2023/07/27 00:59:03;;;;;;;6.63;3.70;;;;;;;8.10;100.00;92976.34;2106545;28;20060;-81
2023/07/27 01:00:05;;;;;;;5.05;3.55;;;;;;;8.11;100.00;92983.91;2098390;28;20027;-81
2023/07/27 01:01:06;;;;;;;8.05;4.22;;;;;;;8.07;100.00;92983.97;2089821;28;20017;-81
2023/07/27 01:02:08;;;;;;;10.82;3.80;;;;;;;8.03;100.00;92980.63;2090230;28;20532;-81
2023/07/27 01:03:09;;;;;;;6.07;3.95;;;;;;;8.03;100.00;92980.63;2103051;28;20492;-81
2023/07/27 01:04:10;;;;;;;7.47;3.92;;;;;;;8.09;100.00;92983.56;2114859;28;20353;-81
2023/07/27 01:05:12;;;;;;;5.35;3.75;;;;;;;8.12;100.00;92990.00;2107957;28;20052;-82
2023/07/27 01:06:13;;;;;;;6.10;3.50;;;;;;;8.13;100.00;92980.88;2109018;28;20514;-81
2023/07/27 01:07:14;;;;;;;5.03;3.50;;;;;;;8.10;100.00;92979.00;2106661;28;20023;-81
2023/07/27 01:08:15;;;;;;;10.50;4.40;;;;;;;8.06;100.00;92981.72;2114581;28;20061;-81
2023/07/27 01:09:16;;;;;;;6.57;4.50;;;;;;;8.03;100.00;92980.63;2113703;28;20035;-81
2023/07/27 01:10:17;;;;;;;8.30;4.10;;;;;;;8.01;100.00;92980.25;2098098;28;20155;-81
2023/07/27 01:11:42;;;;;;;5.90;3.95;;;;;;;7.92;100.00;92981.91;2109146;28;20027;-81
2023/07/27 01:12:58;;;;;;;5.55;3.85;;;;;;;7.81;100.00;92985.50;2114305;28;20027;-81
2023/07/27 01:14:16;;;;;;;6.22;3.60;;;;;;;7.88;100.00;92971.31;2097680;28;20025;-81
2023/07/27 01:15:25;;;;;;;6.25;4.10;;;;;;;7.82;100.00;92980.91;2094259;28;20051;-81
2023/07/27 01:16:52;;;;;;;4.93;3.63;;;;;;;7.74;100.00;92982.16;2091674;28;20728;-81
2023/07/27 01:18:04;;;;;;;6.68;3.85;;;;;;;7.72;100.00;92974.56;2083955;28;20647;-81
2023/07/27 01:19:28;;;;;;;5.28;3.40;;;;;;;7.86;100.00;92968.31;2092586;28;20458;-81
2023/07/27 01:20:42;;;;;;;4.30;3.28;;;;;;;7.89;100.00;92974.72;2112099;28;20114;-82
2023/07/27 01:21:48;;;;;;;11.05;3.75;;;;;;;7.88;100.00;92979.31;2103233;28;20463;-81
2023/07/27 01:23:09;;;;;;;5.63;3.38;;;;;;;7.79;100.00;92968.41;2088315;28;20025;-81
2023/07/27 01:24:56;;;;;;;5.32;3.42;;;;;;;7.76;100.00;92975.28;2086820;28;20032;-81
2023/07/27 01:26:25;;;;;;;4.72;3.38;;;;;;;7.85;100.00;92964.13;2102443;28;20035;-81
2023/07/27 01:27:44;;;;;;;9.52;3.67;;;;;;;7.83;100.00;92964.53;2097362;28;20079;-81
2023/07/27 01:29:23;;;;;;;4.20;3.50;;;;;;;7.77;100.00;92957.41;2098652;28;20028;-81
2023/07/27 01:30:26;;;;;;;5.53;3.38;;;;;;;7.83;100.00;92953.16;2102998;28;20053;-81
2023/07/27 01:31:32;;;;;;;6.00;3.33;;;;;;;7.80;100.00;92957.34;2099854;28;20024;-82
2023/07/27 01:32:35;;;;;;;5.28;3.80;;;;;;;7.78;100.00;92961.59;2098732;28;20025;-81
2023/07/27 01:34:02;;;;;;;5.13;3.80;;;;;;;7.70;100.00;92954.84;2091959;28;20090;-81
2023/07/27 01:35:05;;;;;;;6.90;3.92;;;;;;;7.67;100.00;92956.41;2092878;28;20134;-81
2023/07/27 01:36:35;;;;;;;5.65;3.60;;;;;;;7.72;100.00;92957.84;2089864;28;20021;-81
2023/07/27 01:37:41;;;;;;;6.22;3.30;;;;;;;7.78;100.00;92957.00;2088210;28;20049;-81
2023/07/27 01:38:44;;;;;;;6.03;3.35;;;;;;;7.68;100.00;92952.59;2090177;28;20029;-81
2023/07/27 01:39:48;;;;;;;5.53;3.45;;;;;;;7.78;100.00;92953.59;2102881;28;20032;-81
2023/07/27 01:40:53;;;;;;;7.65;3.63;;;;;;;7.99;100.00;92947.19;2092492;28;20042;-82
2023/07/27 01:41:55;;;;;;;7.05;3.67;;;;;;;7.88;100.00;92942.03;2095546;28;20029;-81
2023/07/27 01:42:57;;;;;;;6.35;3.20;;;;;;;7.96;100.00;92937.38;2097695;28;20044;-81
2023/07/27 01:44:00;;;;;;;5.40;3.65;;;;;;;7.98;100.00;92938.47;2100229;28;20074;-80
2023/07/27 01:45:02;;;;;;;7.97;3.25;;;;;;;7.99;100.00;92944.53;2097698;28;20031;-81
2023/07/27 01:46:07;;;;;;;5.88;3.30;;;;;;;7.99;100.00;92933.91;2089753;28;20032;-81
2023/07/27 01:47:09;;;;;;;6.03;3.83;;;;;;;8.03;100.00;92930.06;2096795;28;20157;-81
2023/07/27 01:48:11;;;;;;;5.28;3.47;;;;;;;8.02;100.00;92949.06;2100034;28;20110;-81
2023/07/27 01:49:13;;;;;;;6.05;3.40;;;;;;;7.93;100.00;92930.94;2106048;28;20027;-81
2023/07/27 01:50:15;;;;;;;6.45;3.65;;;;;;;7.98;100.00;92933.16;2098170;28;20016;-81
2023/07/27 01:51:17;;;;;;;6.72;3.60;;;;;;;8.00;100.00;92936.16;2098937;28;20024;-81
2023/07/27 01:52:20;;;;;;;8.05;3.38;;;;;;;7.98;100.00;92933.16;2106281;28;20080;-81
2023/07/27 01:53:22;;;;;;;6.03;3.53;;;;;;;8.00;100.00;92935.44;2102246;28;20058;-81
2023/07/27 01:54:34;;;;;;;4.57;2.90;;;;;;;8.00;100.00;92933.50;2097946;28;20044;-81
2023/07/27 01:55:36;;;;;;;6.80;3.45;;;;;;;7.99;100.00;92926.69;2089420;28;20146;-80
2023/07/27 01:56:37;;;;;;;5.93;3.58;;;;;;;8.00;100.00;92924.78;2092124;28;20024;-80
2023/07/27 01:57:39;;;;;;;6.05;3.17;;;;;;;8.08;100.00;92920.84;2089820;28;20088;-80
2023/07/27 01:58:41;;;;;;;7.97;3.75;;;;;;;8.02;100.00;92925.84;2097668;28;20029;-81
2023/07/27 01:59:43;;;;;;;5.15;3.45;;;;;;;8.11;100.00;92929.94;2104977;28;20339;-81
2023/07/27 02:00:45;;;;;;;7.88;3.67;;;;;;;7.96;100.00;92921.41;2106185;28;20024;-81
2023/07/27 02:01:47;;;;;;;6.72;3.33;;;;;;;7.97;100.00;92914.94;2109535;28;20376;-81
2023/07/27 02:02:49;;;;;;;6.05;3.60;;;;;;;8.10;100.00;92923.84;2103725;28;20024;-80
2023/07/27 02:03:50;;;;;;;6.07;3.92;;;;;;;8.11;100.00;92913.94;2092971;28;20076;-82
2023/07/27 02:04:53;;;;;;;5.18;3.63;;;;;;;8.10;100.00;92913.19;2097165;28;20052;-81
2023/07/27 02:05:55;;;;;;;7.72;3.53;;;;;;;8.12;100.00;92910.13;2103551;28;20038;-81
2023/07/27 02:06:56;;;;;;;4.55;3.50;;;;;;;8.10;100.00;92909.78;2089268;28;20028;-81
2023/07/27 02:07:57;;;;;;;4.53;3.03;;;;;;;8.00;100.00;92906.91;2081410;28;20884;-80
2023/07/27 02:08:58;;;;;;;4.82;3.45;;;;;;;8.08;100.00;92900.31;2089724;28;20382;-80
2023/07/27 02:09:59;;;;;;;7.60;3.47;;;;;;;8.10;100.00;92907.88;2097532;28;20035;-81
2023/07/27 02:11:04;;;;;;;6.20;4.00;;;;;;;8.08;100.00;92900.31;2105326;28;20028;-81
2023/07/27 02:12:18;;;;;;;6.55;3.80;;;;;;;8.19;100.00;92900.13;2104096;28;20415;-80
2023/07/27 02:13:23;;;;;;;7.38;4.05;;;;;;;8.22;100.00;92901.97;2105431;28;20024;-80
2023/07/27 02:14:37;;;;;;;5.68;3.65;;;;;;;8.24;100.00;92898.91;2105635;28;20020;-81
2023/07/27 02:15:47;;;;;;;5.07;3.65;;;;;;;8.37;100.00;92893.78;2099175;28;20028;-81
2023/07/27 02:16:53;;;;;;;;;;;;;;;8.45;100.00;92889.84;2090895;28;20068;-81
2023/07/27 02:18:10;;;;;;;6.25;3.33;;;;;;;8.47;100.00;92892.84;2097699;28;20745;-81
2023/07/27 02:19:16;;;;;;;4.20;3.40;;;;;;;8.50;100.00;92894.69;2091652;28;20021;-81
2023/07/27 02:20:19;;;;;;;6.07;3.50;;;;;;;8.46;100.00;92894.75;2102842;28;20410;-81
2023/07/27 02:21:23;;;;;;;10.27;3.80;;;;;;;8.37;100.00;92893.78;2105623;28;20027;-81
2023/07/27 02:22:25;;;;;;;4.20;3.58;;;;;;;8.39;100.00;92886.91;2097593;28;20031;-80
2023/07/27 02:23:27;;;;;;;6.57;4.13;;;;;;;8.44;100.00;92894.41;2099935;28;20068;-80
2023/07/27 02:24:30;;;;;;;6.30;3.83;;;;;;;8.49;100.00;92899.28;2097643;28;20024;-80
2023/07/27 02:25:31;;;;;;;6.53;4.30;;;;;;;8.40;100.00;92892.97;2099065;28;20035;-81
2023/07/27 02:26:33;;;;;;;7.78;3.92;;;;;;;8.34;100.00;92884.69;2114122;28;20024;-81
2023/07/27 02:27:34;;;;;;;5.68;3.85;;;;;;;8.52;100.00;92884.41;2105745;28;20135;-80
2023/07/27 02:28:35;;;;;;;6.82;3.58;;;;;;;8.46;100.00;92891.34;2105790;28;20470;-80
2023/07/27 02:29:36;;;;;;;5.68;3.70;;;;;;;8.47;100.00;92885.63;2114474;28;20019;-80
2023/07/27 02:30:37;;;;;;;4.00;3.35;;;;;;;8.38;100.00;92882.72;2089649;28;20068;-81
2023/07/27 02:31:38;;;;;;;4.60;3.58;;;;;;;8.42;100.00;92880.00;2091907;28;20084;-80
2023/07/27 02:32:39;;;;;;;6.00;3.75;;;;;;;8.43;100.00;92884.16;2106338;28;20019;-81
2023/07/27 02:33:40;;;;;;;5.25;3.53;;;;;;;8.38;100.00;92877.38;2111854;28;20086;-81
2023/07/27 02:35:37;;;;;;;4.82;3.60;;;;;;;8.45;100.00;92874.59;2114660;28;20096;-80
2023/07/27 02:36:38;;;;;;;5.88;4.32;;;;;;;8.49;100.00;92872.63;2112568;28;20027;-80
2023/07/27 02:37:39;;;;;;;6.32;4.03;;;;;;;8.50;100.00;92874.13;2106143;28;20499;-80
2023/07/27 02:38:40;;;;;;;6.10;4.03;;;;;;;8.51;100.00;92875.63;2106744;28;20024;-81
2023/07/27 02:39:41;;;;;;;8.52;4.20;;;;;;;8.53;100.00;92870.66;2105782;28;20111;-81
2023/07/27 02:40:42;;;;;;;6.18;4.40;;;;;;;8.53;100.00;92875.25;2097850;28;20413;-81
2023/07/27 02:41:43;;;;;;;6.32;3.65;;;;;;;8.54;100.00;92872.16;2092488;28;20366;-80
2023/07/27 02:42:44;;;;;;;6.05;3.97;;;;;;;8.60;100.00;92869.03;2097758;28;20027;-80
2023/07/27 02:43:45;;;;;;;5.13;3.95;;;;;;;8.52;100.00;92874.50;2097727;28;20032;-81
2023/07/27 02:44:46;;;;;;;6.88;4.32;;;;;;;8.60;100.00;92863.69;2098006;28;20109;-81
2023/07/27 02:45:47;;;;;;;6.57;4.35;;;;;;;8.68;100.00;92868.47;2106227;28;20059;-81
2023/07/27 02:46:48;;;;;;;6.13;3.97;;;;;;;8.69;100.00;92872.66;2111746;28;20045;-80
2023/07/27 02:47:49;;;;;;;5.32;3.90;;;;;;;8.62;100.00;92877.38;2117060;28;20054;-81
2023/07/27 02:48:52;;;;;;;7.30;3.70;;;;;;;8.65;100.00;92871.97;2114076;28;20032;-81
2023/07/27 02:49:53;;;;;;;6.32;4.00;;;;;;;8.60;100.00;92874.34;2106282;28;20004;-80
2023/07/27 02:50:54;;;;;;;6.65;3.90;;;;;;;8.61;100.00;92871.28;2112830;28;20000;-80
2023/07/27 02:51:55;;;;;;;6.65;4.35;;;;;;;8.64;100.00;92864.38;2118575;28;20020;-80
2023/07/27 02:52:56;;;;;;;5.57;3.92;;;;;;;8.67;100.00;92869.66;2120844;28;20016;-81
2023/07/27 02:53:57;;;;;;;5.72;3.78;;;;;;;8.73;100.00;92872.59;2110744;28;20016;-81
2023/07/27 02:54:58;;;;;;;9.32;4.43;;;;;;;8.66;100.00;92872.72;2103624;28;20009;-80
2023/07/27 02:56:00;;;;;;;5.47;3.70;;;;;;;8.76;100.00;92866.44;2098707;28;20028;-80
2023/07/27 02:57:02;;;;;;;6.45;3.55;;;;;;;8.86;100.00;92870.81;2105438;28;20024;-80
2023/07/27 02:58:03;;;;;;;8.68;4.07;;;;;;;8.93;100.00;92867.25;2113422;28;20122;-80
2023/07/27 02:59:04;;;;;;;6.97;4.00;;;;;;;8.79;100.00;92871.72;2106590;28;20036;-80
2023/07/27 03:00:08;;;;;;;9.88;4.40;;;;;;;8.75;100.00;92872.94;2108941;28;20046;-80
2023/07/27 03:01:09;;;;;;;5.43;3.85;;;;;;;8.76;100.00;92875.19;2102083;28;20028;-80
2023/07/27 03:02:10;;;;;;;5.00;3.67;;;;;;;8.79;100.00;92874.38;2104308;28;20310;-81
2023/07/27 03:03:10;;;;;;;5.25;3.78;;;;;;;8.80;100.00;92867.13;2113710;28;20365;-80
2023/07/27 03:04:11;;;;;;;8.00;3.83;;;;;;;8.95;100.00;92868.34;2114045;28;20058;-80
2023/07/27 03:05:12;;;;;;;5.80;4.13;;;;;;;8.85;100.00;92865.91;2105631;28;20028;-81
2023/07/27 03:06:13;;;;;;;9.93;4.40;;;;;;;8.77;100.00;92868.69;2114334;28;20045;-81
2023/07/27 03:07:14;;;;;;;8.77;4.00;;;;;;;8.77;100.00;92867.94;2106773;28;20099;-81
2023/07/27 03:08:15;;;;;;;8.35;4.13;;;;;;;8.75;100.00;92871.03;2105517;28;20020;-81
2023/07/27 03:09:17;;;;;;;7.05;4.05;;;;;;;8.79;100.00;92866.38;2105848;28;20019;-81
2023/07/27 03:10:17;;;;;;;10.55;4.25;;;;;;;8.77;100.00;92868.69;2110611;28;20027;-81
2023/07/27 03:11:18;;;;;;;5.93;4.22;;;;;;;8.82;100.00;92870.13;2114093;28;20143;-81
2023/07/27 03:12:19;;;;;;;6.75;3.72;;;;;;;8.76;100.00;92872.53;2089568;28;20504;-81
2023/07/27 03:13:20;;;;;;;4.95;4.05;;;;;;;8.76;100.00;92874.44;2099543;28;20024;-82
2023/07/27 03:14:21;;;;;;;5.80;3.60;;;;;;;8.79;100.00;92866.38;2097547;28;20088;-82
2023/07/27 03:15:22;;;;;;;4.78;3.60;;;;;;;8.76;100.00;92871.78;2102952;28;20028;-82
2023/07/27 03:16:23;;;;;;;7.38;4.35;;;;;;;8.92;100.00;92866.53;2114531;28;20153;-82
2023/07/27 03:17:24;;;;;;;6.18;4.38;;;;;;;8.80;100.00;92864.47;2107417;28;20112;-81
2023/07/27 03:18:25;;;;;;;5.68;4.15;;;;;;;8.85;100.00;92866.66;2107117;28;20016;-82
2023/07/27 03:19:26;;;;;;;5.65;3.92;;;;;;;8.79;100.00;92862.97;2107485;28;20448;-82
2023/07/27 03:20:27;;;;;;;6.53;4.07;;;;;;;8.79;100.00;92865.63;2115552;28;20020;-82
2023/07/27 03:21:29;;;;;;;7.80;4.13;;;;;;;8.70;100.00;92860.84;2107791;28;20024;-81
2023/07/27 03:22:32;;;;;;;4.95;3.90;;;;;;;8.76;100.00;92869.09;2107676;28;20026;-81
2023/07/27 03:23:33;;;;;;;7.15;4.00;;;;;;;8.83;100.00;92864.41;2107133;28;20079;-82
2023/07/27 03:24:34;;;;;;;5.53;3.75;;;;;;;9.12;100.00;92863.06;2108057;28;20020;-81
2023/07/27 03:25:36;;;;;;;4.82;3.60;;;;;;;8.99;100.00;92869.03;2098770;28;20029;-82
2023/07/27 03:26:37;;;;;;;7.15;3.88;;;;;;;8.94;100.00;92864.19;2092619;28;20078;-82
2023/07/27 03:27:38;;;;;;;6.13;4.18;;;;;;;8.88;100.00;92865.09;2098954;28;20028;-81
2023/07/27 03:28:39;;;;;;;8.35;4.63;;;;;;;8.81;100.00;92858.72;2085419;28;20044;-81
2023/07/27 03:29:40;;;;;;;7.68;4.25;;;;;;;8.77;100.00;92868.69;2082450;28;20103;-81
2023/07/27 03:31:00;;;;;;;6.97;4.20;;;;;;;8.71;100.00;92861.59;2096968;28;20089;-81
2023/07/27 03:32:01;;;;;;;;;;;;;;;8.80;100.00;92865.22;2114276;27;20472;-82
2023/07/27 03:33:03;;;;;;;6.80;4.13;;;;;;;8.81;100.00;92864.03;2115977;28;20010;-81
2023/07/27 03:34:04;;;;;;;8.98;4.30;;;;;;;8.87;100.00;92861.66;2107332;28;20031;-81
2023/07/27 03:35:05;;;;;;;8.13;4.40;;;;;;;8.92;100.00;92858.53;2107000;28;20047;-81
2023/07/27 03:36:06;;;;;;;9.43;4.47;;;;;;;8.97;100.00;92863.38;2115758;28;20027;-82
2023/07/27 03:37:07;;;;;;;5.93;3.88;;;;;;;8.94;100.00;92863.44;2114673;28;20020;-81
2023/07/27 03:38:08;;;;;;;7.13;4.05;;;;;;;8.83;100.00;92856.41;2111586;28;20020;-82
2023/07/27 03:39:09;;;;;;;6.95;4.60;;;;;;;8.91;100.00;92857.03;2113416;28;20019;-81
2023/07/27 03:40:10;;;;;;;7.00;4.32;;;;;;;8.87;100.00;92856.34;2115482;28;20024;-81
2023/07/27 03:41:12;;;;;;;7.70;4.28;;;;;;;8.96;100.00;92851.22;2116012;28;20102;-81
2023/07/27 03:42:13;;;;;;;8.70;4.65;;;;;;;8.83;100.00;92853.00;2103035;28;20034;-81
2023/07/27 03:43:14;;;;;;;5.65;4.53;;;;;;;8.80;100.00;92841.22;2090732;28;20103;-81
2023/07/27 03:44:15;;;;;;;5.85;4.18;;;;;;;8.90;100.00;92855.50;2092919;28;20477;-81
2023/07/27 03:45:16;;;;;;;5.63;4.20;;;;;;;8.90;100.00;92852.09;2096984;28;20028;-82
2023/07/27 03:46:17;;;;;;;10.80;4.20;;;;;;;8.96;100.00;92845.13;2098781;28;20473;-81
2023/07/27 03:47:18;;;;;;;11.27;4.47;;;;;;;8.96;100.00;92848.53;2107007;28;20098;-82
2023/07/27 03:48:19;;;;;;;9.20;4.65;;;;;;;8.81;100.00;92840.06;2107106;28;20832;-81
2023/07/27 03:49:21;;;;;;;7.18;4.28;;;;;;;8.89;100.00;92840.69;2112697;28;20027;-82
2023/07/27 03:50:22;;;;;;;7.32;3.72;;;;;;;9.00;100.00;92841.22;2110182;28;20055;-81
2023/07/27 03:51:23;;;;;;;6.07;4.28;;;;;;;8.99;100.00;92831.72;2107083;28;20027;-81
2023/07/27 03:52:24;;;;;;;12.02;4.00;;;;;;;8.97;100.00;92841.28;2101415;28;20051;-81
2023/07/27 03:53:26;;;;;;;7.28;3.97;;;;;;;8.90;100.00;92834.19;2090374;28;20025;-82
2023/07/27 03:54:26;;;;;;;7.72;3.97;;;;;;;8.94;100.00;92839.44;2090582;28;20025;-81
2023/07/27 03:55:27;;;;;;;7.18;4.10;;;;;;;8.95;100.00;92836.34;2093684;28;20040;-81
2023/07/27 03:56:29;;;;;;;9.80;5.00;;;;;;;8.92;100.00;92842.53;2107013;28;20055;-82
2023/07/27 03:57:31;;;;;;;4.95;4.05;;;;;;;8.79;100.00;92838.97;2090598;28;20428;-82
2023/07/27 03:58:32;;;;;;;8.73;4.30;;;;;;;8.90;100.00;92838.75;2106908;28;20031;-82
2023/07/27 03:59:33;;;;;;;8.98;4.22;;;;;;;8.80;100.00;92841.22;2107637;28;20031;-82
2023/07/27 04:00:34;;;;;;;4.55;3.70;;;;;;;8.95;100.00;92841.69;2119003;27;20541;-82
2023/07/27 04:01:35;;;;;;;8.68;4.38;;;;;;;8.97;100.00;92841.28;2115456;28;20051;-82
2023/07/27 04:02:36;;;;;;;10.13;4.40;;;;;;;8.96;100.00;92845.13;2106753;28;20024;-82
2023/07/27 04:03:37;;;;;;;8.25;3.80;;;;;;;8.89;100.00;92839.94;2107510;28;20027;-82
2023/07/27 04:04:38;;;;;;;6.72;4.00;;;;;;;8.92;100.00;92844.44;2098491;28;20028;-81
2023/07/27 04:05:41;;;;;;;6.80;4.28;;;;;;;8.88;100.00;92836.50;2102745;28;20016;-81
2023/07/27 04:06:42;;;;;;;6.85;4.43;;;;;;;8.93;100.00;92833.38;2107125;28;20108;-81
2023/07/27 04:07:43;;;;;;;10.95;4.53;;;;;;;8.94;100.00;92834.13;2106175;28;20077;-82
2023/07/27 04:08:44;;;;;;;7.38;4.40;;;;;;;8.89;100.00;92838.00;2115573;28;20104;-82
2023/07/27 04:09:45;;;;;;;8.10;4.20;;;;;;;9.07;100.00;92827.72;2107067;28;20092;-82
2023/07/27 04:10:46;;;;;;;8.65;4.40;;;;;;;9.04;100.00;92830.47;2093360;28;20537;-82
2023/07/27 04:11:47;;;;;;;5.80;4.30;;;;;;;9.14;100.00;92828.75;2099055;28;20483;-82
2023/07/27 04:12:48;;;;;;;5.95;4.18;;;;;;;9.17;100.00;92835.91;2100335;28;20021;-81
2023/07/27 04:13:49;;;;;;;6.07;4.07;;;;;;;9.21;100.00;92839.25;2104809;28;20036;-81
2023/07/27 04:14:51;;;;;;;5.78;3.95;;;;;;;9.21;100.00;92842.69;2098559;28;20047;-82
2023/07/27 04:15:52;;;;;;;6.80;3.97;;;;;;;9.16;100.00;92835.19;2090043;28;20039;-81
2023/07/27 04:16:52;;;;;;;6.43;4.50;;;;;;;9.14;100.00;92836.75;2089926;28;20040;-81
2023/07/27 04:17:53;;;;;;;7.20;4.63;;;;;;;9.06;100.00;92844.16;2107069;28;20024;-81
2023/07/27 04:18:54;;;;;;;8.40;4.72;;;;;;;9.05;100.00;92840.75;2103208;28;20031;-81
2023/07/27 04:19:55;;;;;;;9.15;4.25;;;;;;;9.03;100.00;92834.31;2092647;28;20025;-81
2023/07/27 04:20:56;;;;;;;9.88;5.10;;;;;;;9.04;100.00;92836.56;2106570;28;20050;-82
2023/07/27 04:21:57;;;;;;;9.48;4.18;;;;;;;9.07;100.00;92841.06;2115244;27;20019;-81
2023/07/27 04:22:58;;;;;;;6.93;4.13;;;;;;;9.13;100.00;92835.25;2104844;28;20047;-81
2023/07/27 04:23:59;;;;;;;7.28;4.70;;;;;;;9.18;100.00;92838.19;2094032;28;20059;-82
2023/07/27 04:25:00;;;;;;;8.23;4.70;;;;;;;9.25;100.00;92831.94;2107513;28;20028;-81
2023/07/27 04:26:02;;;;;;;6.90;3.78;;;;;;;9.26;100.00;92831.56;2106395;28;20419;-82
2023/07/27 04:27:07;;;;;;;8.35;4.47;;;;;;;9.21;100.00;92831.25;2088413;28;20020;-82
2023/07/27 04:28:08;;;;;;;6.80;4.63;;;;;;;9.27;100.00;92833.03;2090143;28;20021;-81
2023/07/27 04:29:09;;;;;;;12.15;5.20;;;;;;;9.23;100.00;92826.28;2106430;28;20047;-81
2023/07/27 04:30:10;;;;;;;8.02;4.20;;;;;;;9.30;100.00;92832.19;2107041;28;20048;-81
2023/07/27 04:31:15;;;;;;;8.25;4.30;;;;;;;9.55;100.00;92836.25;2107058;28;20016;-81
2023/07/27 04:32:23;;;;;;;7.70;4.50;;;;;;;9.50;100.00;92834.06;2106433;28;20024;-81
2023/07/27 04:33:24;;;;;;;7.40;4.60;;;;;;;9.40;100.00;92827.81;2091214;28;20721;-81
2023/07/27 04:34:25;;;;;;;10.00;4.68;;;;;;;9.41;100.00;92825.91;2089693;28;20025;-81
2023/07/27 04:35:25;;;;;;;7.03;4.43;;;;;;;9.47;100.00;92827.66;2097110;28;20075;-81
2023/07/27 04:36:26;;;;;;;6.55;4.40;;;;;;;9.45;100.00;92824.66;2081960;28;20053;-81
2023/07/27 04:37:27;;;;;;;7.43;4.50;;;;;;;9.49;100.00;92829.91;2083277;28;20425;-82
2023/07/27 04:38:29;;;;;;;8.30;4.22;;;;;;;9.53;100.00;92834.00;2090239;28;20033;-81
2023/07/27 04:39:30;;;;;;;9.82;4.70;;;;;;;9.47;100.00;92837.56;2090213;28;20458;-81
2023/07/27 04:40:31;;;;;;;6.95;4.68;;;;;;;9.46;100.00;92839.50;2098125;28;20036;-81
2023/07/27 04:41:32;;;;;;;6.32;4.60;;;;;;;9.53;100.00;92838.59;2097458;28;20116;-81
2023/07/27 04:42:33;;;;;;;7.65;4.70;;;;;;;9.39;100.00;92836.97;2093475;28;20167;-82
2023/07/27 04:43:34;;;;;;;6.13;4.78;;;;;;;9.49;100.00;92844.00;2098527;28;20052;-82
2023/07/27 04:44:36;;;;;;;10.57;5.40;;;;;;;9.62;100.00;92840.69;2105987;28;20024;-82
2023/07/27 04:45:37;;;;;;;6.85;5.28;;;;;;;9.70;100.00;92842.78;2090215;28;20421;-81
2023/07/27 04:46:38;;;;;;;7.95;4.50;;;;;;;9.61;100.00;92839.16;2090035;28;20028;-82
2023/07/27 04:47:39;;;;;;;8.18;4.65;;;;;;;9.61;100.00;92837.25;2098654;28;20036;-81
2023/07/27 04:48:40;;;;;;;7.70;4.68;;;;;;;9.75;100.00;92841.53;2098506;28;20115;-82
2023/07/27 04:49:42;;;;;;;8.15;5.07;;;;;;;9.66;100.00;92836.00;2094554;28;20059;-82
2023/07/27 04:50:43;;;;;;;8.02;5.00;;;;;;;9.69;100.00;92840.50;2095151;28;20389;-80
2023/07/27 04:51:44;;;;;;;7.53;5.47;;;;;;;9.62;100.00;92843.34;2098788;28;20110;-79
2023/07/27 04:52:45;;;;;;;6.75;4.68;;;;;;;9.57;100.00;92841.94;2098877;28;20170;-79
2023/07/27 04:53:46;;;;;;;8.15;5.10;;;;;;;9.61;100.00;92834.56;2099128;28;20048;-79
2023/07/27 04:54:47;;;;;;;8.65;4.68;;;;;;;9.68;100.00;92836.34;2106588;28;20020;-79
2023/07/27 04:55:47;;;;;;;10.00;5.55;;;;;;;9.78;100.00;92838.00;2106419;28;20707;-79
2023/07/27 04:56:48;;;;;;;8.02;5.05;;;;;;;9.77;100.00;92839.19;2098260;28;20454;-80
2023/07/27 04:57:49;;;;;;;7.63;5.00;;;;;;;9.78;100.00;92838.75;2100775;28;20111;-81